createdAt,value
2022-10-23T00:03:40.373Z,18.60
2022-10-23T00:07:41.996Z,14.90
2022-10-23T00:11:44.746Z,17.67
2022-10-23T00:15:46.423Z,18.23
2022-10-23T00:19:47.948Z,18.80
2022-10-23T00:23:49.756Z,15.98
2022-10-23T00:27:51.386Z,19.35
2022-10-23T00:31:52.912Z,17.65
2022-10-23T00:35:54.422Z,17.73
2022-10-23T00:39:56.287Z,15.15
2022-10-23T00:44:04.053Z,17.15
2022-10-23T00:48:05.771Z,16.20
2022-10-23T00:52:09.940Z,19.98
2022-10-23T00:56:12.800Z,18.35
2022-10-23T01:00:23.713Z,17.58
2022-10-23T01:04:29.756Z,18.83
2022-10-23T01:08:43.512Z,17.77
2022-10-23T01:13:02.302Z,22.02
2022-10-23T01:17:12.612Z,19.27
2022-10-23T01:21:23.825Z,16.92
2022-10-23T01:25:51.994Z,17.33
2022-10-23T01:30:07.523Z,16.42
2022-10-23T01:34:20.278Z,18.05
2022-10-23T01:38:25.837Z,17.98
2022-10-23T01:42:35.531Z,18.95
2022-10-23T01:46:37.545Z,16.95
2022-10-23T01:50:43.818Z,17.38
2022-10-23T01:54:47.327Z,19.52
2022-10-23T01:58:52.553Z,21.27
2022-10-23T02:02:58.643Z,19.73
2022-10-23T02:07:06.218Z,16.50
2022-10-23T02:11:11.219Z,16.05
2022-10-23T02:15:37.714Z,19.33
2022-10-23T02:20:05.039Z,17.77
2022-10-23T02:24:11.582Z,15.35
2022-10-23T02:28:25.104Z,18.85
2022-10-23T02:32:31.189Z,16.40
2022-10-23T02:36:33.008Z,18.55
2022-10-23T02:40:40.568Z,15.48
2022-10-23T02:44:57.979Z,18.75
2022-10-23T02:49:13.545Z,18.88
2022-10-23T02:53:44.391Z,17.92
2022-10-23T02:58:10.453Z,18.30
2022-10-23T03:06:24.947Z,20.10
2022-10-23T03:10:26.436Z,23.77
2022-10-23T03:14:27.880Z,19.27
2022-10-23T03:18:29.380Z,19.08
2022-10-23T03:22:34.208Z,19.52
2022-10-23T03:26:35.823Z,18.10
2022-10-23T03:30:37.350Z,19.42
2022-10-23T03:34:39.068Z,20.00
2022-10-23T03:38:43.686Z,20.00
2022-10-23T03:42:45.560Z,20.98
2022-10-23T03:46:51.211Z,20.38
2022-10-23T03:50:52.893Z,19.27
2022-10-23T03:54:54.520Z,22.30
2022-10-23T03:58:56.070Z,22.52
2022-10-23T04:03:00.396Z,20.75
2022-10-23T04:07:02.932Z,20.83
2022-10-23T04:11:04.511Z,22.80
2022-10-23T04:15:16.849Z,21.42
2022-10-23T04:19:20.870Z,18.67
2022-10-23T04:23:22.502Z,24.02
2022-10-23T04:27:24.297Z,24.73
2022-10-23T04:31:26.186Z,21.92
2022-10-23T04:35:27.789Z,21.00
2022-10-23T04:39:29.756Z,27.42
2022-10-23T04:43:31.232Z,21.58
2022-10-23T04:47:32.734Z,25.70
2022-10-23T04:51:35.062Z,35.92
2022-10-23T04:55:55.492Z,30.98
2022-10-23T05:00:01.866Z,28.67
2022-10-23T05:04:10.370Z,25.95
2022-10-23T05:08:50.472Z,25.65
2022-10-23T05:13:19.872Z,23.80
2022-10-23T05:17:26.984Z,22.33
2022-10-23T05:21:31.314Z,23.42
2022-10-23T05:25:35.260Z,25.10
2022-10-23T05:29:47.581Z,27.63
2022-10-23T05:33:54.373Z,24.83
2022-10-23T05:37:58.965Z,25.27
2022-10-23T05:42:00.884Z,24.30
2022-10-23T05:46:06.232Z,25.30
2022-10-23T05:50:08.240Z,29.42
2022-10-23T05:54:44.928Z,24.23
2022-10-23T05:58:56.583Z,27.35
2022-10-23T06:03:16.462Z,25.25
2022-10-23T06:07:24.445Z,26.20
2022-10-23T06:11:26.341Z,24.10
2022-10-23T06:15:34.208Z,23.33
2022-10-23T06:19:43.779Z,23.52
2022-10-23T06:23:46.516Z,25.15
2022-10-23T06:27:53.832Z,21.45
2022-10-23T06:31:55.580Z,20.48
2022-10-23T06:35:58.508Z,25.35
2022-10-23T06:40:00.197Z,20.80
2022-10-23T06:44:20.750Z,20.80
2022-10-23T06:52:46.401Z,17.65
2022-10-23T06:56:51.382Z,16.25
2022-10-23T07:01:01.949Z,18.65
2022-10-23T07:05:04.477Z,19.08
2022-10-23T07:09:06.144Z,17.25
2022-10-23T07:13:26.101Z,17.05
2022-10-23T07:17:34.923Z,14.27
2022-10-23T07:21:37.808Z,17.17
2022-10-23T07:26:11.498Z,13.18
2022-10-23T07:30:14.405Z,14.57
2022-10-23T07:34:24.887Z,11.73
2022-10-23T07:38:44.612Z,10.23
2022-10-23T07:42:46.294Z,11.18
2022-10-23T07:46:49.802Z,12.70
2022-10-23T07:50:51.923Z,10.60
2022-10-23T07:54:53.859Z,10.10
2022-10-23T07:58:56.349Z,9.02
2022-10-23T08:02:57.905Z,10.50
2022-10-23T08:07:01.074Z,11.88
2022-10-23T08:11:06.344Z,8.93
2022-10-23T08:15:18.545Z,9.48
2022-10-23T08:19:27.934Z,8.25
2022-10-23T08:23:30.985Z,8.68
2022-10-23T08:27:33.589Z,9.35
2022-10-23T08:31:35.831Z,7.88
2022-10-23T08:35:46.286Z,8.70
2022-10-23T08:39:55.895Z,9.57
2022-10-23T08:44:28.046Z,8.20
2022-10-23T08:48:42.639Z,9.95
2022-10-23T08:53:29.850Z,6.55
2022-10-23T08:57:43.834Z,6.97
2022-10-23T09:02:11.715Z,9.35
2022-10-23T09:06:31.023Z,7.50
2022-10-23T09:10:52.744Z,7.47
2022-10-23T09:15:19.656Z,6.47
2022-10-23T09:19:27.267Z,7.85
2022-10-23T09:23:29.044Z,7.03
2022-10-23T09:27:30.832Z,6.60
2022-10-23T09:31:32.477Z,8.00
2022-10-23T09:35:33.971Z,8.80
2022-10-23T09:39:36.868Z,8.23
2022-10-23T09:43:38.502Z,6.32
2022-10-23T09:47:42.229Z,11.23
2022-10-23T09:52:04.130Z,8.52
2022-10-23T10:00:53.399Z,6.95
2022-10-23T10:05:43.833Z,6.03
2022-10-23T10:09:56.528Z,6.57
2022-10-23T10:14:19.257Z,7.53
2022-10-23T10:18:26.405Z,5.70
2022-10-23T10:22:33.877Z,6.05
2022-10-23T10:26:53.512Z,6.30
2022-10-23T10:31:10.474Z,7.38
2022-10-23T10:35:33.908Z,6.65
2022-10-23T10:39:44.292Z,7.38
2022-10-23T10:44:17.608Z,6.32
2022-10-23T10:48:52.857Z,6.65
2022-10-23T10:53:23.464Z,6.55
2022-10-23T10:57:39.158Z,6.75
2022-10-23T11:02:12.672Z,7.53
2022-10-23T11:06:19.086Z,6.75
2022-10-23T11:10:47.652Z,5.13
2022-10-23T11:14:50.313Z,5.40
2022-10-23T11:19:11.301Z,5.45
2022-10-23T11:24:12.529Z,6.05
2022-10-23T11:28:48.328Z,5.43
2022-10-23T11:33:16.842Z,5.95
2022-10-23T11:37:20.426Z,5.38
2022-10-23T11:41:33.717Z,6.72
2022-10-23T11:45:38.411Z,6.30
2022-10-23T11:49:40.023Z,5.85
2022-10-23T11:53:41.606Z,6.80
2022-10-23T11:57:46.125Z,7.35
2022-10-23T12:01:50.242Z,5.82
2022-10-23T12:06:02.893Z,6.45
2022-10-23T12:10:26.863Z,7.30
2022-10-23T12:18:48.112Z,6.60
2022-10-23T12:23:05.908Z,7.65
2022-10-23T12:31:27.652Z,6.13
2022-10-23T12:35:50.685Z,7.70
2022-10-23T12:39:56.661Z,6.88
2022-10-23T12:44:03.987Z,7.20
2022-10-23T12:48:05.870Z,8.52
2022-10-23T12:52:17.210Z,5.68
2022-10-23T13:00:24.115Z,6.45
2022-10-23T13:04:29.390Z,7.10
2022-10-23T13:08:42.983Z,6.28
2022-10-23T13:13:13.421Z,7.95
2022-10-23T13:17:14.973Z,7.30
2022-10-23T13:21:23.041Z,8.77
2022-10-23T13:25:31.173Z,8.43
2022-10-23T13:29:34.650Z,7.75
2022-10-23T13:33:43.561Z,6.45
2022-10-23T13:41:51.513Z,7.03
2022-10-23T13:45:53.733Z,6.43
2022-10-23T13:49:55.428Z,8.63
2022-10-23T13:53:57.668Z,7.72
2022-10-23T13:57:59.337Z,7.75
2022-10-23T14:02:01.001Z,8.23
2022-10-23T14:06:02.792Z,8.07
2022-10-23T14:10:05.094Z,8.18
2022-10-23T14:14:07.131Z,8.43
2022-10-23T14:18:08.676Z,8.48
2022-10-23T14:22:10.461Z,8.30
2022-10-23T14:26:15.252Z,9.65
2022-10-23T14:30:16.865Z,7.80
2022-10-23T14:34:18.677Z,9.13
2022-10-23T14:38:20.303Z,9.50
2022-10-23T14:42:22.045Z,8.55
2022-10-23T14:46:25.294Z,8.35
2022-10-23T14:50:27.628Z,7.72
2022-10-23T14:54:31.142Z,10.40
2022-10-23T14:58:32.753Z,9.40
2022-10-23T15:02:34.412Z,9.40
2022-10-23T15:06:36.843Z,11.45
2022-10-23T15:10:39.100Z,8.20
2022-10-23T15:14:40.718Z,10.95
2022-10-23T15:18:42.247Z,9.57
2022-10-23T15:22:44.143Z,9.70
2022-10-23T15:26:46.488Z,11.68
2022-10-23T15:30:48.113Z,9.35
2022-10-23T15:34:50.195Z,10.85
2022-10-23T15:38:52.010Z,9.10
2022-10-23T15:42:53.499Z,10.73
2022-10-23T15:46:56.974Z,9.75
2022-10-23T15:50:59.131Z,9.38
2022-10-23T15:55:00.692Z,12.15
2022-10-23T15:59:02.861Z,10.60
2022-10-23T16:03:04.440Z,10.40
2022-10-23T16:07:07.110Z,10.48
2022-10-23T16:11:20.991Z,10.95
2022-10-23T16:15:22.643Z,10.93
2022-10-23T16:19:24.429Z,12.63
2022-10-23T16:23:28.210Z,10.55
2022-10-23T16:27:29.746Z,12.35
2022-10-23T16:31:31.907Z,11.52
2022-10-23T16:35:33.504Z,10.75
2022-10-23T16:39:43.862Z,14.88
2022-10-23T16:44:23.827Z,13.05
2022-10-23T16:48:38.308Z,16.40
2022-10-23T16:52:39.910Z,13.25
2022-10-23T16:56:41.410Z,15.00
2022-10-23T17:00:43.093Z,14.27
2022-10-23T17:04:44.656Z,13.57
2022-10-23T17:08:46.785Z,14.13
2022-10-23T17:12:49.915Z,16.60
2022-10-23T17:16:52.232Z,16.05
2022-10-23T17:20:57.595Z,14.38
2022-10-23T17:24:59.216Z,18.50
2022-10-23T17:29:04.248Z,16.50
2022-10-23T17:33:06.041Z,17.52
2022-10-23T17:37:07.884Z,20.10
2022-10-23T17:41:11.157Z,18.33
2022-10-23T17:45:12.684Z,20.80
2022-10-23T17:49:14.308Z,20.48
2022-10-23T17:53:15.853Z,22.23
2022-10-23T17:57:20.145Z,20.70
2022-10-23T18:01:25.072Z,21.15
2022-10-23T18:05:27.092Z,22.42
2022-10-23T18:09:28.635Z,21.77
2022-10-23T18:13:32.362Z,21.38
2022-10-23T18:17:34.973Z,24.42
2022-10-23T18:21:37.759Z,24.05
2022-10-23T18:25:42.815Z,23.90
2022-10-23T18:29:44.692Z,24.40
2022-10-23T18:33:46.929Z,25.90
2022-10-23T18:37:48.725Z,25.77
2022-10-23T18:41:55.002Z,24.33
2022-10-23T18:45:56.694Z,24.90
2022-10-23T18:49:58.319Z,21.23
2022-10-23T18:54:03.159Z,26.35
2022-10-23T18:58:04.673Z,24.00
2022-10-23T19:02:06.621Z,25.05
2022-10-23T19:06:08.504Z,22.08
2022-10-23T19:10:15.618Z,32.70
2022-10-23T19:14:17.126Z,22.20
2022-10-23T19:18:18.942Z,24.00
2022-10-23T19:22:20.543Z,28.75
2022-10-23T19:26:22.228Z,22.65
2022-10-23T19:30:24.975Z,21.48
2022-10-23T19:34:26.788Z,22.08
2022-10-23T19:38:28.275Z,24.33
2022-10-23T19:42:30.000Z,20.23
2022-10-23T19:46:31.735Z,23.30
2022-10-23T19:50:33.422Z,22.42
2022-10-23T19:54:35.106Z,20.35
2022-10-23T19:58:37.520Z,20.98
2022-10-23T20:02:39.204Z,21.35
2022-10-23T20:06:41.245Z,19.23
2022-10-23T20:10:44.346Z,20.30
2022-10-23T20:14:46.056Z,22.45
2022-10-23T20:18:48.544Z,21.30
2022-10-23T20:22:54.570Z,22.95
2022-10-23T20:26:57.220Z,20.77
2022-10-23T20:30:58.734Z,19.20
2022-10-23T20:35:00.632Z,20.17
2022-10-23T20:39:06.027Z,19.58
2022-10-23T20:43:07.697Z,19.05
2022-10-23T20:47:09.205Z,21.77
2022-10-23T20:51:17.371Z,19.60
2022-10-23T20:55:19.596Z,18.50
2022-10-23T20:59:21.406Z,16.75
2022-10-23T21:03:26.135Z,15.95
2022-10-23T21:07:27.720Z,18.70
2022-10-23T21:11:29.639Z,16.67
2022-10-23T21:15:31.233Z,14.25
2022-10-23T21:19:32.909Z,15.80
2022-10-23T21:23:35.837Z,15.57
2022-10-23T21:27:37.434Z,14.02
2022-10-23T21:31:39.255Z,17.05
2022-10-23T21:35:47.512Z,13.68
2022-10-23T21:39:59.790Z,14.00
2022-10-23T21:44:05.471Z,16.70
2022-10-23T21:48:07.369Z,18.08
2022-10-23T21:52:08.816Z,20.10
2022-10-23T21:56:22.756Z,18.75
2022-10-23T22:00:24.352Z,17.98
2022-10-23T22:04:25.971Z,18.73
2022-10-23T22:08:27.647Z,17.70
2022-10-23T22:12:29.179Z,18.55
2022-10-23T22:16:31.483Z,19.02
2022-10-23T22:20:33.055Z,23.63
2022-10-23T22:24:36.516Z,19.70
2022-10-23T22:28:37.977Z,18.70
2022-10-23T22:32:39.732Z,20.83
2022-10-23T22:36:41.828Z,20.45
2022-10-23T22:40:46.644Z,20.48
2022-10-23T22:44:48.465Z,20.40
2022-10-23T22:48:49.979Z,17.90
2022-10-23T22:52:52.152Z,17.13
2022-10-23T22:56:53.629Z,16.85
2022-10-23T23:01:13.965Z,17.52
2022-10-23T23:05:15.591Z,16.95
2022-10-23T23:09:18.643Z,17.88
2022-10-23T23:13:20.276Z,19.75
2022-10-23T23:17:22.547Z,20.55
2022-10-23T23:21:24.250Z,19.65
2022-10-23T23:25:25.790Z,18.83
2022-10-23T23:29:29.327Z,18.23
2022-10-23T23:33:30.939Z,17.83
2022-10-23T23:37:32.417Z,19.83
2022-10-23T23:41:33.990Z,18.55
2022-10-23T23:45:35.493Z,19.73
2022-10-23T23:49:36.943Z,18.88
2022-10-23T23:53:38.515Z,21.13
2022-10-23T23:57:40.023Z,21.13
